createdAt,value
2023-02-06T00:00:10.934Z,0.90
2023-02-06T00:02:19.872Z,0.63
2023-02-06T00:04:30.422Z,0.60
2023-02-06T00:06:39.073Z,0.70
2023-02-06T00:08:48.173Z,1.00
2023-02-06T00:10:56.932Z,0.80
2023-02-06T00:13:05.897Z,0.70
2023-02-06T00:15:14.492Z,0.83
2023-02-06T00:17:23.216Z,0.73
2023-02-06T00:19:33.547Z,0.87
2023-02-06T00:21:43.352Z,1.00
2023-02-06T00:23:52.485Z,0.80
2023-02-06T00:26:01.644Z,0.87
2023-02-06T00:28:10.445Z,0.90
2023-02-06T00:30:19.360Z,0.90
2023-02-06T00:32:28.330Z,0.80
2023-02-06T00:34:38.362Z,0.80
2023-02-06T00:36:47.331Z,0.90
2023-02-06T00:38:56.420Z,0.90
2023-02-06T00:41:05.622Z,0.87
2023-02-06T00:43:14.553Z,0.93
2023-02-06T00:45:23.308Z,0.60
2023-02-06T00:47:32.304Z,0.77
2023-02-06T00:49:42.413Z,0.80
2023-02-06T00:51:51.736Z,0.80
2023-02-06T00:54:00.658Z,0.50
2023-02-06T00:56:12.530Z,0.70
2023-02-06T00:58:21.621Z,0.70
2023-02-06T01:00:30.425Z,0.80
2023-02-06T01:02:39.457Z,0.73
2023-02-06T01:04:49.991Z,0.40
2023-02-06T01:06:58.625Z,0.60
2023-02-06T01:09:07.210Z,0.90
2023-02-06T01:11:16.304Z,0.50
2023-02-06T01:13:25.535Z,0.60
2023-02-06T01:15:34.844Z,0.70
2023-02-06T01:17:43.947Z,1.00
2023-02-06T01:19:54.290Z,0.90
2023-02-06T01:22:02.872Z,0.77
2023-02-06T01:24:11.868Z,0.70
2023-02-06T01:26:22.560Z,0.63
2023-02-06T01:28:31.382Z,0.80
2023-02-06T01:30:40.958Z,0.60
2023-02-06T01:32:49.973Z,0.80
2023-02-06T01:35:00.394Z,0.70
2023-02-06T01:37:09.408Z,0.50
2023-02-06T01:39:18.121Z,0.50
2023-02-06T01:41:26.759Z,0.80
2023-02-06T01:43:36.708Z,0.80
2023-02-06T01:45:46.355Z,0.70
2023-02-06T01:47:56.649Z,1.03
2023-02-06T01:50:07.805Z,0.80
2023-02-06T01:52:19.198Z,0.80
2023-02-06T01:54:28.717Z,0.77
2023-02-06T01:56:41.734Z,0.67
2023-02-06T01:58:52.955Z,0.63
2023-02-06T02:01:03.272Z,0.60
2023-02-06T02:03:12.337Z,0.80
2023-02-06T02:05:22.692Z,0.70
2023-02-06T02:07:34.606Z,0.80
2023-02-06T02:09:43.781Z,0.87
2023-02-06T02:11:53.051Z,0.60
2023-02-06T02:14:02.738Z,0.50
2023-02-06T02:16:17.125Z,0.40
2023-02-06T02:18:33.249Z,0.70
2023-02-06T02:20:52.337Z,0.70
2023-02-06T02:23:06.247Z,0.67
2023-02-06T02:25:32.875Z,1.00
2023-02-06T02:27:56.781Z,0.50
2023-02-06T02:30:23.416Z,0.40
2023-02-06T02:32:46.996Z,0.70
2023-02-06T02:35:07.453Z,0.90
2023-02-06T02:37:20.065Z,0.80
2023-02-06T02:39:35.097Z,0.63
2023-02-06T02:41:47.226Z,0.60
2023-02-06T02:43:57.994Z,0.70
2023-02-06T02:46:08.957Z,0.77
2023-02-06T02:48:20.962Z,0.60
2023-02-06T02:50:31.636Z,0.73
2023-02-06T02:52:40.539Z,0.60
2023-02-06T02:54:49.429Z,0.50
2023-02-06T02:57:00.507Z,0.70
2023-02-06T02:59:10.665Z,0.70
2023-02-06T03:01:22.707Z,0.77
2023-02-06T03:03:32.996Z,0.97
2023-02-06T03:05:47.769Z,0.77
2023-02-06T03:08:03.586Z,0.83
2023-02-06T03:10:16.502Z,1.07
2023-02-06T03:12:27.166Z,0.80
2023-02-06T03:14:40.696Z,0.60
2023-02-06T03:16:53.415Z,0.80
2023-02-06T03:19:05.027Z,0.80
2023-02-06T03:21:17.253Z,0.80
2023-02-06T03:23:29.784Z,0.60
2023-02-06T03:25:41.250Z,0.43
2023-02-06T03:27:50.971Z,0.60
2023-02-06T03:30:00.606Z,0.80
2023-02-06T03:32:12.646Z,0.60
2023-02-06T03:34:25.656Z,0.73
2023-02-06T03:36:36.598Z,0.63
2023-02-06T03:38:46.208Z,0.90
2023-02-06T03:40:55.539Z,0.80
2023-02-06T03:43:06.043Z,0.70
2023-02-06T03:45:17.129Z,0.60
2023-02-06T03:47:26.514Z,0.70
2023-02-06T03:49:36.529Z,0.60
2023-02-06T03:51:49.776Z,0.77
2023-02-06T03:54:01.033Z,0.90
2023-02-06T03:56:11.258Z,0.77
2023-02-06T03:58:19.909Z,0.50
2023-02-06T04:00:29.351Z,0.77
2023-02-06T04:02:39.430Z,0.77
2023-02-06T04:04:48.574Z,0.67
2023-02-06T04:06:59.060Z,0.90
2023-02-06T04:09:07.821Z,0.67
2023-02-06T04:11:16.655Z,0.90
2023-02-06T04:13:25.656Z,0.80
2023-02-06T04:15:34.929Z,0.57
2023-02-06T04:17:58.921Z,0.77
2023-02-06T04:20:09.456Z,0.80
2023-02-06T04:22:20.205Z,0.70
2023-02-06T04:24:30.937Z,0.83
2023-02-06T04:26:39.791Z,0.77
2023-02-06T04:28:48.860Z,0.50
2023-02-06T04:30:58.089Z,0.93
2023-02-06T04:33:06.823Z,1.00
2023-02-06T04:35:15.433Z,0.70
2023-02-06T04:37:25.823Z,0.73
2023-02-06T04:39:35.191Z,1.00
2023-02-06T04:41:43.850Z,0.50
2023-02-06T04:43:52.948Z,0.97
2023-02-06T04:46:02.419Z,0.80
2023-02-06T04:48:11.201Z,1.60
2023-02-06T04:50:20.543Z,2.10
2023-02-06T04:52:30.977Z,2.37
2023-02-06T04:54:39.819Z,1.93
2023-02-06T04:56:49.344Z,2.43
2023-02-06T04:58:58.054Z,2.13
2023-02-06T05:01:07.104Z,2.33
2023-02-06T05:03:16.097Z,1.47
2023-02-06T05:05:24.729Z,1.10
2023-02-06T05:07:35.493Z,0.80
2023-02-06T05:09:44.833Z,0.80
2023-02-06T05:11:53.804Z,0.70
2023-02-06T05:14:02.459Z,0.60
2023-02-06T05:16:12.403Z,0.80
2023-02-06T05:18:21.121Z,0.70
2023-02-06T05:20:30.304Z,12.43
2023-02-06T05:22:40.709Z,9.10
2023-02-06T05:24:49.665Z,18.30
2023-02-06T05:26:58.656Z,16.97
2023-02-06T05:29:07.313Z,18.50
2023-02-06T05:31:19.999Z,14.47
2023-02-06T05:33:29.404Z,9.30
2023-02-06T05:35:39.566Z,1.93
2023-02-06T05:37:49.566Z,0.90
2023-02-06T05:39:59.972Z,0.90
2023-02-06T05:42:09.086Z,1.10
2023-02-06T05:44:18.253Z,1.93
2023-02-06T05:46:27.926Z,1.00
2023-02-06T05:48:37.089Z,1.37
2023-02-06T05:50:46.100Z,1.37
2023-02-06T05:52:57.126Z,1.87
2023-02-06T05:55:06.489Z,1.20
2023-02-06T05:57:15.486Z,1.70
2023-02-06T05:59:24.518Z,1.60
2023-02-06T06:01:33.953Z,1.23
2023-02-06T06:03:42.969Z,1.10
2023-02-06T06:05:53.508Z,1.57
2023-02-06T06:08:03.778Z,0.97
2023-02-06T06:10:14.853Z,1.03
2023-02-06T06:12:23.510Z,1.50
2023-02-06T06:14:32.172Z,1.27
2023-02-06T06:16:42.100Z,1.40
2023-02-06T06:18:50.907Z,1.10
2023-02-06T06:20:59.640Z,2.43
2023-02-06T06:23:09.839Z,3.20
2023-02-06T06:25:19.175Z,1.53
2023-02-06T06:27:27.946Z,0.87
2023-02-06T06:29:37.712Z,0.80
2023-02-06T06:31:46.656Z,1.30
2023-02-06T06:33:55.877Z,1.77
2023-02-06T06:36:05.230Z,1.50
2023-02-06T06:38:15.969Z,1.27
2023-02-06T06:40:25.514Z,1.37
2023-02-06T06:42:35.317Z,1.47
2023-02-06T06:44:45.519Z,1.40
2023-02-06T06:46:55.131Z,1.43
2023-02-06T06:49:04.492Z,1.50
2023-02-06T06:51:13.395Z,2.57
2023-02-06T06:53:23.995Z,3.27
2023-02-06T06:55:33.282Z,1.20
2023-02-06T06:57:41.866Z,1.07
2023-02-06T06:59:51.037Z,1.07
2023-02-06T07:02:01.070Z,1.00
2023-02-06T07:04:10.164Z,1.30
2023-02-06T07:06:20.728Z,1.40
2023-02-06T07:08:33.542Z,1.90
2023-02-06T07:10:42.768Z,1.63
2023-02-06T07:12:53.778Z,1.60
2023-02-06T07:15:03.631Z,1.47
2023-02-06T07:17:12.800Z,1.67
2023-02-06T07:19:21.676Z,2.10
2023-02-06T07:21:31.595Z,1.57
2023-02-06T07:23:41.669Z,1.90
2023-02-06T07:25:50.270Z,1.93
2023-02-06T07:27:59.346Z,1.93
2023-02-06T07:30:09.171Z,1.40
2023-02-06T07:32:17.813Z,1.83
2023-02-06T07:34:26.948Z,1.47
2023-02-06T07:36:35.819Z,1.80
2023-02-06T07:38:46.809Z,1.77
2023-02-06T07:40:55.820Z,1.77
2023-02-06T07:43:04.951Z,1.77
2023-02-06T07:45:13.976Z,1.53
2023-02-06T07:47:22.705Z,1.60
2023-02-06T07:49:31.698Z,2.97
2023-02-06T07:51:40.375Z,4.40
2023-02-06T07:53:51.539Z,1.90
2023-02-06T07:56:00.653Z,4.10
2023-02-06T07:58:12.094Z,3.10
2023-02-06T08:00:21.588Z,3.57
2023-02-06T08:02:30.449Z,2.93
2023-02-06T08:04:39.369Z,3.10
2023-02-06T08:06:48.659Z,2.30
2023-02-06T08:08:59.551Z,2.57
2023-02-06T08:11:09.316Z,3.03
2023-02-06T08:13:18.142Z,2.50
2023-02-06T08:15:27.173Z,2.93
2023-02-06T08:17:36.191Z,2.10
2023-02-06T08:19:45.723Z,2.10
2023-02-06T08:21:54.700Z,1.40
2023-02-06T08:24:05.612Z,2.30
2023-02-06T08:26:15.684Z,1.80
2023-02-06T08:28:24.508Z,2.00
2023-02-06T08:30:34.750Z,1.90
2023-02-06T08:32:43.420Z,1.80
2023-02-06T08:34:52.114Z,2.83
2023-02-06T08:37:01.411Z,3.53
2023-02-06T08:39:13.183Z,1.93
2023-02-06T08:41:23.133Z,3.10
2023-02-06T08:43:33.197Z,3.30
2023-02-06T08:45:42.311Z,3.17
2023-02-06T08:47:51.712Z,3.27
2023-02-06T08:50:03.229Z,3.23
2023-02-06T08:52:12.082Z,2.60
2023-02-06T08:54:23.603Z,2.93
2023-02-06T08:56:32.796Z,2.00
2023-02-06T08:58:41.925Z,2.57
2023-02-06T09:00:52.361Z,2.20
2023-02-06T09:03:01.482Z,2.53
2023-02-06T09:05:10.308Z,2.40
2023-02-06T09:07:18.938Z,2.20
2023-02-06T09:09:29.379Z,2.10
2023-02-06T09:11:38.989Z,2.33
2023-02-06T09:13:49.414Z,1.70
2023-02-06T09:15:58.266Z,1.83
2023-02-06T09:18:07.373Z,1.83
2023-02-06T09:20:16.569Z,1.80
2023-02-06T09:22:25.359Z,1.80
2023-02-06T09:24:35.790Z,1.63
2023-02-06T09:26:59.094Z,1.53
2023-02-06T09:29:09.709Z,1.77
2023-02-06T09:31:18.532Z,1.57
2023-02-06T09:33:27.572Z,1.53
2023-02-06T09:35:36.328Z,1.70
2023-02-06T09:37:45.432Z,2.10
2023-02-06T09:39:56.092Z,1.53
2023-02-06T09:42:06.584Z,1.80
2023-02-06T09:44:17.711Z,2.63
2023-02-06T09:46:28.720Z,2.07
2023-02-06T09:48:40.180Z,1.93
2023-02-06T09:50:53.151Z,1.83
2023-02-06T09:53:08.649Z,1.57
2023-02-06T09:55:23.568Z,2.27
2023-02-06T09:57:37.303Z,1.83
2023-02-06T09:59:49.881Z,1.40
2023-02-06T10:02:04.099Z,1.90
2023-02-06T10:04:23.730Z,1.80
2023-02-06T10:06:36.348Z,1.60
2023-02-06T10:08:47.173Z,1.73
2023-02-06T10:10:59.207Z,1.60
2023-02-06T10:13:11.734Z,1.60
2023-02-06T10:15:24.773Z,2.17
2023-02-06T10:17:36.320Z,2.50
2023-02-06T10:19:48.332Z,1.77
2023-02-06T10:22:01.646Z,2.00
2023-02-06T10:24:13.210Z,2.53
2023-02-06T10:26:24.209Z,1.87
2023-02-06T10:28:34.148Z,1.27
2023-02-06T10:30:52.944Z,1.80
2023-02-06T10:33:09.715Z,2.10
2023-02-06T10:35:30.681Z,2.57
2023-02-06T10:38:02.935Z,2.90
2023-02-06T10:40:22.540Z,1.80
2023-02-06T10:42:41.452Z,2.00
2023-02-06T10:44:53.875Z,1.87
2023-02-06T10:47:02.673Z,1.67
2023-02-06T10:49:19.756Z,1.77
2023-02-06T10:51:32.510Z,1.63
2023-02-06T10:53:44.267Z,1.57
2023-02-06T10:55:55.814Z,1.30
2023-02-06T10:58:07.351Z,1.77
2023-02-06T11:00:19.419Z,1.50
2023-02-06T11:02:29.837Z,1.40
2023-02-06T11:04:40.973Z,1.80
2023-02-06T11:06:49.938Z,1.50
2023-02-06T11:08:59.314Z,1.50
2023-02-06T11:11:15.960Z,1.47
2023-02-06T11:13:28.359Z,1.43
2023-02-06T11:15:40.357Z,1.50
2023-02-06T11:17:49.180Z,1.40
2023-02-06T11:20:02.880Z,1.60
2023-02-06T11:22:12.835Z,1.63
2023-02-06T11:24:22.700Z,1.60
2023-02-06T11:26:32.594Z,1.60
2023-02-06T11:28:53.004Z,1.63
2023-02-06T11:31:03.208Z,1.83
2023-02-06T11:33:29.524Z,1.43
2023-02-06T11:35:40.085Z,1.60
2023-02-06T11:37:53.938Z,1.53
2023-02-06T11:40:21.285Z,1.90
2023-02-06T11:42:30.449Z,1.50
2023-02-06T11:44:41.786Z,1.27
2023-02-06T11:46:50.884Z,1.70
2023-02-06T11:49:04.536Z,1.97
2023-02-06T11:51:14.757Z,1.23
2023-02-06T11:53:23.401Z,1.47
2023-02-06T11:55:34.293Z,1.63
2023-02-06T11:57:43.252Z,1.80
2023-02-06T11:59:54.781Z,1.63
2023-02-06T12:02:05.854Z,1.60
2023-02-06T12:04:24.108Z,1.63
2023-02-06T12:06:35.238Z,1.73
2023-02-06T12:08:50.183Z,1.60
2023-02-06T12:11:02.074Z,1.80
2023-02-06T12:13:11.838Z,1.77
2023-02-06T12:15:44.922Z,1.50
2023-02-06T12:17:56.641Z,1.43
2023-02-06T12:20:08.676Z,1.30
2023-02-06T12:22:19.601Z,1.30
2023-02-06T12:24:32.514Z,0.97
2023-02-06T12:26:41.756Z,1.20
2023-02-06T12:28:54.978Z,1.10
2023-02-06T12:31:06.475Z,1.30
2023-02-06T12:33:17.118Z,1.40
2023-02-06T12:35:27.795Z,1.17
2023-02-06T12:37:40.072Z,1.50
2023-02-06T12:39:49.352Z,1.70
2023-02-06T12:42:04.561Z,1.13
2023-02-06T12:44:22.430Z,1.50
2023-02-06T12:46:33.672Z,1.27
2023-02-06T12:48:45.034Z,1.13
2023-02-06T12:50:58.192Z,1.17
2023-02-06T12:53:11.019Z,1.60
2023-02-06T12:55:26.411Z,1.10
2023-02-06T12:57:37.254Z,1.10
2023-02-06T12:59:58.179Z,1.00
2023-02-06T13:02:17.245Z,0.80
2023-02-06T13:04:27.297Z,1.20
2023-02-06T13:06:41.362Z,1.10
2023-02-06T13:08:52.666Z,1.60
2023-02-06T13:11:03.394Z,1.50
2023-02-06T13:13:27.339Z,1.37
2023-02-06T13:15:38.190Z,1.17
2023-02-06T13:17:50.689Z,1.47
2023-02-06T13:20:03.893Z,1.70
2023-02-06T13:22:40.487Z,2.10
2023-02-06T13:24:51.127Z,1.30
2023-02-06T13:27:03.894Z,1.03
2023-02-06T13:29:25.666Z,1.87
2023-02-06T13:31:35.964Z,1.63
2023-02-06T13:33:49.224Z,1.53
2023-02-06T13:36:00.841Z,1.50
2023-02-06T13:38:14.159Z,1.67
2023-02-06T13:40:30.856Z,1.33
2023-02-06T13:42:43.699Z,1.37
2023-02-06T13:44:53.527Z,1.70
2023-02-06T13:47:17.632Z,1.40
2023-02-06T13:49:39.244Z,1.47
2023-02-06T13:51:51.397Z,1.87
2023-02-06T13:54:08.193Z,1.47
2023-02-06T13:56:26.583Z,1.43
2023-02-06T13:58:40.471Z,1.67
2023-02-06T14:00:51.832Z,1.60
2023-02-06T14:03:07.036Z,1.07
2023-02-06T14:05:19.228Z,1.60
2023-02-06T14:07:35.264Z,1.77
2023-02-06T14:10:07.662Z,1.50
2023-02-06T14:12:34.982Z,1.17
2023-02-06T14:14:50.539Z,1.40
2023-02-06T14:17:05.099Z,1.43
2023-02-06T14:19:20.632Z,1.70
2023-02-06T14:21:37.695Z,1.20
2023-02-06T14:23:56.322Z,1.53
2023-02-06T14:26:12.925Z,1.17
2023-02-06T14:28:28.167Z,1.43
2023-02-06T14:30:43.400Z,1.50
2023-02-06T14:33:02.841Z,1.63
2023-02-06T14:35:36.320Z,1.40
2023-02-06T14:37:55.596Z,1.60
2023-02-06T14:40:04.805Z,1.20
2023-02-06T14:42:16.981Z,1.30
2023-02-06T14:44:28.369Z,1.43
2023-02-06T14:46:37.555Z,1.80
2023-02-06T14:48:48.270Z,1.23
2023-02-06T14:50:58.276Z,1.73
2023-02-06T14:53:10.396Z,1.37
2023-02-06T14:55:32.724Z,1.47
2023-02-06T14:57:47.261Z,1.43
2023-02-06T14:59:57.681Z,1.37
2023-02-06T15:02:14.869Z,1.00
2023-02-06T15:04:26.101Z,1.10
2023-02-06T15:06:37.028Z,1.47
2023-02-06T15:08:51.009Z,1.57
2023-02-06T15:11:00.433Z,1.37
2023-02-06T15:13:09.402Z,1.27
2023-02-06T15:15:20.677Z,1.17
2023-02-06T15:17:30.136Z,1.60
2023-02-06T15:19:39.183Z,1.30
2023-02-06T15:21:48.074Z,1.40
2023-02-06T15:24:08.319Z,1.40
2023-02-06T15:26:22.590Z,1.70
2023-02-06T15:28:32.973Z,1.50
2023-02-06T15:30:42.250Z,1.43
2023-02-06T15:32:52.455Z,1.40
2023-02-06T15:35:01.312Z,1.80
2023-02-06T15:37:21.697Z,1.30
2023-02-06T15:39:32.178Z,1.60
2023-02-06T15:41:41.463Z,1.87
2023-02-06T15:43:51.012Z,2.00
2023-02-06T15:46:01.144Z,1.60
2023-02-06T15:48:12.246Z,1.30
2023-02-06T15:50:21.964Z,1.13
2023-02-06T15:52:35.300Z,1.60
2023-02-06T15:54:59.469Z,1.50
2023-02-06T15:57:09.697Z,1.53
2023-02-06T15:59:21.910Z,1.60
2023-02-06T16:01:32.448Z,1.47
2023-02-06T16:03:44.097Z,1.67
2023-02-06T16:05:54.026Z,1.43
2023-02-06T16:08:04.006Z,1.83
2023-02-06T16:10:22.105Z,1.90
2023-02-06T16:12:34.094Z,1.80
2023-02-06T16:14:45.525Z,1.97
2023-02-06T16:16:58.689Z,2.63
2023-02-06T16:19:28.012Z,2.00
2023-02-06T16:21:41.370Z,1.30
2023-02-06T16:23:50.733Z,1.57
2023-02-06T16:26:07.853Z,1.90
2023-02-06T16:28:23.446Z,1.33
2023-02-06T16:30:33.978Z,1.90
2023-02-06T16:32:42.697Z,1.80
2023-02-06T16:34:51.746Z,1.73
2023-02-06T16:37:00.632Z,1.57
2023-02-06T16:39:09.464Z,1.30
2023-02-06T16:41:27.377Z,3.00
2023-02-06T16:43:37.128Z,2.83
2023-02-06T16:45:46.802Z,3.23
2023-02-06T16:47:56.076Z,3.43
2023-02-06T16:50:06.103Z,2.87
2023-02-06T16:52:19.366Z,2.90
2023-02-06T16:54:29.715Z,2.23
2023-02-06T16:56:41.572Z,2.80
2023-02-06T16:58:50.961Z,2.27
2023-02-06T17:01:00.058Z,2.83
2023-02-06T17:03:08.861Z,3.67
2023-02-06T17:05:17.815Z,3.93
2023-02-06T17:07:27.516Z,3.03
2023-02-06T17:09:37.610Z,3.13
2023-02-06T17:11:48.092Z,4.50
2023-02-06T17:13:57.078Z,5.10
2023-02-06T17:16:06.441Z,6.83
2023-02-06T17:18:16.163Z,4.23
2023-02-06T17:20:30.863Z,5.53
2023-02-06T17:22:39.525Z,6.03
2023-02-06T17:24:48.283Z,5.13
2023-02-06T17:26:59.420Z,5.27
2023-02-06T17:29:08.148Z,4.73
2023-02-06T17:31:17.549Z,4.07
2023-02-06T17:33:26.500Z,5.40
2023-02-06T17:35:37.025Z,5.57
2023-02-06T17:37:46.361Z,4.80
2023-02-06T17:39:55.089Z,4.73
2023-02-06T17:42:05.468Z,5.50
2023-02-06T17:44:14.542Z,4.83
2023-02-06T17:46:23.574Z,3.97
2023-02-06T17:48:33.177Z,3.50
2023-02-06T17:51:00.668Z,3.67
2023-02-06T17:53:10.625Z,3.33
2023-02-06T17:55:21.123Z,5.63
2023-02-06T17:57:31.414Z,5.27
2023-02-06T17:59:40.708Z,5.03
2023-02-06T18:01:49.753Z,5.60
2023-02-06T18:04:00.847Z,3.10
2023-02-06T18:06:09.803Z,2.83
2023-02-06T18:08:19.797Z,2.57
2023-02-06T18:10:28.758Z,2.80
2023-02-06T18:12:39.738Z,2.90
2023-02-06T18:14:50.204Z,2.47
2023-02-06T18:16:58.811Z,2.60
2023-02-06T18:19:07.429Z,2.37
2023-02-06T18:21:16.486Z,2.97
2023-02-06T18:23:25.213Z,2.60
2023-02-06T18:25:34.408Z,2.70
2023-02-06T18:27:46.143Z,2.10
2023-02-06T18:29:56.520Z,2.47
2023-02-06T18:32:05.729Z,2.83
2023-02-06T18:34:14.758Z,2.50
2023-02-06T18:36:24.328Z,2.73
2023-02-06T18:38:34.727Z,4.10
2023-02-06T18:40:45.797Z,4.50
2023-02-06T18:42:54.798Z,3.90
2023-02-06T18:45:04.421Z,4.57
2023-02-06T18:47:13.724Z,4.03
2023-02-06T18:49:22.429Z,4.07
2023-02-06T18:51:31.520Z,4.53
2023-02-06T18:53:40.464Z,4.20
2023-02-06T18:55:58.512Z,4.40
2023-02-06T18:58:11.116Z,4.30
2023-02-06T19:00:21.449Z,4.20
2023-02-06T19:02:30.372Z,3.70
2023-02-06T19:04:41.038Z,3.00
2023-02-06T19:06:50.584Z,2.73
2023-02-06T19:08:59.631Z,2.93
2023-02-06T19:11:08.705Z,3.33
2023-02-06T19:13:19.479Z,2.40
2023-02-06T19:15:30.601Z,3.10
2023-02-06T19:17:39.872Z,3.40
2023-02-06T19:19:48.588Z,2.47
2023-02-06T19:21:57.962Z,3.00
2023-02-06T19:24:07.463Z,3.13
2023-02-06T19:26:18.197Z,3.10
2023-02-06T19:28:29.112Z,3.23
2023-02-06T19:30:38.270Z,2.73
2023-02-06T19:32:48.773Z,3.00
2023-02-06T19:34:57.948Z,3.00
2023-02-06T19:37:07.584Z,3.17
2023-02-06T19:39:16.727Z,4.20
2023-02-06T19:41:26.665Z,4.10
2023-02-06T19:43:37.812Z,3.27
2023-02-06T19:45:46.835Z,3.97
2023-02-06T19:47:57.171Z,3.30
2023-02-06T19:50:06.409Z,3.73
2023-02-06T19:52:15.305Z,4.30
2023-02-06T19:54:23.944Z,3.70
2023-02-06T19:56:34.744Z,4.13
2023-02-06T19:58:45.370Z,3.30
2023-02-06T20:00:55.170Z,3.87
2023-02-06T20:03:04.179Z,4.50
2023-02-06T20:05:13.631Z,4.60
2023-02-06T20:07:22.673Z,4.63
2023-02-06T20:09:32.417Z,5.13
2023-02-06T20:11:41.422Z,4.50
2023-02-06T20:13:55.779Z,3.97
2023-02-06T20:16:05.383Z,4.60
2023-02-06T20:18:14.344Z,4.23
2023-02-06T20:20:23.542Z,4.13
2023-02-06T20:22:32.560Z,3.80
2023-02-06T20:24:41.240Z,4.07
2023-02-06T20:26:51.424Z,4.20
2023-02-06T20:29:02.452Z,3.87
2023-02-06T20:31:11.519Z,3.57
2023-02-06T20:33:20.505Z,4.03
2023-02-06T20:35:29.092Z,3.40
2023-02-06T20:37:38.002Z,4.00
2023-02-06T20:39:46.742Z,3.37
2023-02-06T20:41:55.917Z,4.03
2023-02-06T20:44:06.473Z,3.47
2023-02-06T20:46:17.729Z,3.43
2023-02-06T20:48:27.256Z,2.87
2023-02-06T20:50:36.643Z,3.63
2023-02-06T20:52:45.917Z,3.60
2023-02-06T20:54:54.721Z,3.40
2023-02-06T20:57:03.468Z,3.50
2023-02-06T20:59:15.847Z,3.77
2023-02-06T21:01:27.149Z,3.70
2023-02-06T21:03:39.089Z,3.33
2023-02-06T21:05:56.266Z,4.27
2023-02-06T21:08:05.651Z,4.50
2023-02-06T21:10:14.295Z,6.40
2023-02-06T21:12:22.946Z,3.90
2023-02-06T21:14:33.895Z,7.83
2023-02-06T21:16:43.943Z,16.47
2023-02-06T21:18:52.991Z,5.80
2023-02-06T21:21:09.146Z,8.17
2023-02-06T21:23:18.007Z,5.07
2023-02-06T21:25:27.611Z,6.73
2023-02-06T21:27:37.813Z,5.90
2023-02-06T21:29:47.850Z,4.20
2023-02-06T21:32:12.231Z,4.23
2023-02-06T21:34:24.060Z,4.67
2023-02-06T21:36:34.678Z,4.27
2023-02-06T21:38:44.217Z,4.33
2023-02-06T21:40:53.042Z,3.00
2023-02-06T21:43:02.025Z,3.20
2023-02-06T21:45:13.129Z,3.83
2023-02-06T21:47:21.818Z,5.57
2023-02-06T21:49:30.431Z,4.93
2023-02-06T21:51:39.665Z,4.57
2023-02-06T21:53:48.426Z,3.60
2023-02-06T21:55:59.345Z,3.40
2023-02-06T21:58:08.884Z,3.40
2023-02-06T22:00:20.354Z,3.20
2023-02-06T22:02:29.116Z,3.17
2023-02-06T22:04:37.849Z,3.30
2023-02-06T22:06:49.005Z,3.10
2023-02-06T22:09:05.236Z,2.67
2023-02-06T22:11:14.897Z,3.37
2023-02-06T22:13:23.819Z,3.17
2023-02-06T22:15:34.464Z,3.27
2023-02-06T22:17:44.837Z,3.60
2023-02-06T22:19:54.972Z,2.83
2023-02-06T22:22:04.382Z,3.13
2023-02-06T22:24:14.332Z,2.50
2023-02-06T22:26:23.836Z,2.03
2023-02-06T22:28:34.076Z,2.80
2023-02-06T22:30:44.682Z,2.60
2023-02-06T22:32:53.692Z,2.80
2023-02-06T22:35:02.752Z,3.03
2023-02-06T22:37:11.665Z,2.60
2023-02-06T22:39:20.963Z,2.40
2023-02-06T22:41:30.994Z,2.87
2023-02-06T22:43:40.228Z,2.23
2023-02-06T22:45:53.134Z,2.07
2023-02-06T22:48:01.731Z,2.00
2023-02-06T22:50:10.932Z,2.27
2023-02-06T22:52:37.087Z,2.40
2023-02-06T22:54:46.432Z,2.40
2023-02-06T22:56:55.256Z,2.47
2023-02-06T22:59:04.956Z,2.60
2023-02-06T23:01:14.947Z,2.57
2023-02-06T23:03:23.984Z,2.40
2023-02-06T23:05:32.653Z,2.30
2023-02-06T23:07:41.734Z,2.33
2023-02-06T23:09:50.610Z,2.00
2023-02-06T23:11:59.742Z,2.10
2023-02-06T23:14:08.909Z,2.00
2023-02-06T23:16:19.281Z,2.40
2023-02-06T23:18:28.802Z,2.27
2023-02-06T23:20:37.755Z,2.20
2023-02-06T23:22:46.572Z,2.60
2023-02-06T23:24:55.391Z,2.03
2023-02-06T23:27:05.817Z,2.57
2023-02-06T23:29:17.300Z,1.83
2023-02-06T23:31:28.253Z,2.30
2023-02-06T23:33:37.064Z,2.23
2023-02-06T23:35:46.337Z,2.07
2023-02-06T23:37:55.716Z,2.20
2023-02-06T23:40:05.773Z,2.40
2023-02-06T23:42:14.587Z,2.53
2023-02-06T23:44:23.217Z,2.40
2023-02-06T23:46:35.082Z,2.00
2023-02-06T23:48:44.074Z,2.30
2023-02-06T23:50:52.850Z,1.83
2023-02-06T23:53:01.666Z,1.93
2023-02-06T23:55:10.966Z,2.23
2023-02-06T23:57:19.893Z,2.20
2023-02-06T23:59:28.736Z,1.97
